Time;durP1;ratioP1;P1;durP2;ratioP2;P2;SDS_P1;SDS_P2;PMS_P1;PMS_P2;Temp;Humidity;BMP_temperature;BMP_pressure;BME280_temperature;BME280_humidity;BME280_pressure;Samples;Min_cycle;Max_cycle;Signal;HPM_P1;HPM_P2
2021/04/12 04:11:54;;;;;;;1.20;1.20;;;4.70;99.90;;;;;;5336167;23;20307;-78
2021/04/12 04:14:46;;;;;;;1.30;1.30;;;4.60;99.90;;;;;;4958048;29;20689;-78
2021/04/12 04:18:02;;;;;;;1.40;1.40;;;4.80;99.90;;;;;;4958541;29;20205;-78
2021/04/12 04:20:51;;;;;;;1.30;1.30;;;4.90;99.90;;;;;;4954356;28;20225;-78
2021/04/12 04:23:34;;;;;;;1.30;1.30;;;4.70;99.90;;;;;;4938657;29;20286;-78
2021/04/12 04:26:13;;;;;;;1.40;1.40;;;4.60;99.90;;;;;;4940184;29;20206;-78
2021/04/12 04:29:27;;;;;;;1.10;1.10;;;4.60;99.90;;;;;;4939744;29;20233;-78
2021/04/12 04:32:24;;;;;;;1.30;1.30;;;4.70;99.90;;;;;;4939182;29;20230;-77
2021/04/12 04:35:10;;;;;;;1.37;1.37;;;4.70;99.90;;;;;;4902489;29;20326;-78
2021/04/12 04:37:52;;;;;;;1.23;1.23;;;4.50;99.90;;;;;;4936598;29;20210;-78
2021/04/12 04:40:33;;;;;;;1.10;1.10;;;4.20;99.90;;;;;;4938578;29;20198;-78
2021/04/12 04:43:10;;;;;;;1.50;1.50;;;4.40;99.90;;;;;;4938327;29;20209;-78
2021/04/12 04:45:50;;;;;;;1.30;1.30;;;4.30;99.90;;;;;;4949210;29;20198;-78
2021/04/12 04:48:49;;;;;;;1.40;1.40;;;4.20;99.90;;;;;;4959413;29;20209;-78
2021/04/12 04:51:30;;;;;;;1.30;1.30;;;4.30;99.90;;;;;;4959156;28;20231;-78
2021/04/12 04:54:15;;;;;;;1.20;1.20;;;4.10;99.90;;;;;;4959086;29;20262;-77
2021/04/12 04:56:57;;;;;;;1.47;1.47;;;4.00;99.90;;;;;;4959725;29;20205;-77
2021/04/12 04:59:46;;;;;;;1.50;1.50;;;3.90;99.90;;;;;;4958738;29;20213;-77
2021/04/12 05:02:30;;;;;;;1.57;1.57;;;3.90;99.90;;;;;;4957609;28;20259;-77
2021/04/12 05:05:27;;;;;;;1.23;1.23;;;3.90;99.90;;;;;;4958307;29;20209;-78
2021/04/12 05:08:21;;;;;;;1.50;1.50;;;3.90;99.90;;;;;;4957272;29;20201;-78
2021/04/12 05:11:03;;;;;;;1.30;1.30;;;3.70;99.90;;;;;;4957535;28;20280;-80
2021/04/12 05:14:03;;;;;;;1.37;1.37;;;3.70;99.90;;;;;;4956428;29;20205;-79
2021/04/12 05:16:49;;;;;;;1.37;1.37;;;3.70;99.90;;;;;;4956841;29;20279;-80
2021/04/12 05:19:46;;;;;;;1.10;1.10;;;3.80;99.90;;;;;;4957740;29;20219;-78
2021/04/12 05:22:37;;;;;;;1.40;1.40;;;3.80;99.90;;;;;;4956678;28;20323;-78
2021/04/12 05:25:23;;;;;;;1.60;1.60;;;3.80;99.90;;;;;;4955562;29;20235;-77
2021/04/12 05:28:13;;;;;;;1.53;1.53;;;3.70;99.90;;;;;;4956834;29;20236;-78
2021/04/12 05:30:53;;;;;;;1.57;1.57;;;3.70;99.90;;;;;;4955749;28;20229;-77
2021/04/12 05:33:38;;;;;;;1.47;1.47;;;3.70;99.90;;;;;;4956049;29;20649;-77
2021/04/12 05:36:18;;;;;;;1.40;1.40;;;3.80;99.90;;;;;;4955881;29;20264;-78
2021/04/12 05:39:18;;;;;;;1.30;1.30;;;3.90;99.90;;;;;;4932216;29;20651;-78
2021/04/12 05:41:58;;;;;;;1.33;1.33;;;3.90;99.90;;;;;;4936116;29;20218;-77
2021/04/12 05:44:50;;;;;;;1.50;1.50;;;3.80;99.90;;;;;;4936346;29;20206;-79
2021/04/12 05:47:46;;;;;;;1.50;1.50;;;3.80;99.90;;;;;;4936762;29;20206;-78
2021/04/12 05:50:23;;;;;;;1.43;1.43;;;3.60;99.90;;;;;;4936485;29;20214;-78
2021/04/12 05:53:04;;;;;;;1.23;1.23;;;3.70;99.90;;;;;;4938152;29;20699;-78
2021/04/12 05:56:08;;;;;;;1.40;1.40;;;3.90;99.90;;;;;;4937884;29;20209;-78
2021/04/12 05:59:00;;;;;;;1.37;1.37;;;3.80;99.90;;;;;;4932374;29;20209;-78
2021/04/12 06:02:01;;;;;;;1.37;1.37;;;3.70;99.90;;;;;;4936175;29;20222;-78
2021/04/12 06:04:41;;;;;;;1.43;1.43;;;3.60;99.90;;;;;;4936840;29;20202;-77
2021/04/12 06:07:42;;;;;;;1.40;1.40;;;3.50;99.90;;;;;;4937752;29;20217;-79
2021/04/12 06:10:32;;;;;;;1.40;1.40;;;3.40;99.90;;;;;;4938285;29;20209;-79
2021/04/12 06:13:30;;;;;;;1.77;1.77;;;3.40;99.90;;;;;;4937521;29;20198;-79
2021/04/12 06:16:11;;;;;;;1.70;1.70;;;3.40;99.90;;;;;;4932300;29;20587;-78
2021/04/12 06:19:15;;;;;;;1.50;1.50;;;3.30;99.90;;;;;;4937381;29;20273;-79
2021/04/12 06:22:09;;;;;;;1.40;1.40;;;3.40;99.90;;;;;;4937441;29;20222;-78
2021/04/12 06:24:58;;;;;;;1.40;1.40;;;3.40;99.90;;;;;;4937007;29;20206;-78
2021/04/12 06:28:14;;;;;;;1.33;1.33;;;3.40;99.90;;;;;;4937175;29;20284;-76
2021/04/12 06:31:05;;;;;;;1.37;1.37;;;3.50;99.90;;;;;;4936676;29;20254;-78
2021/04/12 06:34:00;;;;;;;1.30;1.30;;;3.50;99.90;;;;;;4937090;29;20206;-77
2021/04/12 06:36:35;;;;;;;1.30;1.30;;;3.60;99.90;;;;;;4936275;29;20289;-75
2021/04/12 06:39:30;;;;;;;1.30;1.30;;;3.70;99.90;;;;;;4935501;29;20626;-77
2021/04/12 06:42:36;;;;;;;1.23;1.23;;;3.60;99.90;;;;;;4933776;29;20226;-81
2021/04/12 06:45:53;;;;;;;1.50;1.50;;;3.40;99.90;;;;;;4899332;29;20203;-82
2021/04/12 06:48:59;;;;;;;1.60;1.60;;;3.40;99.90;;;;;;4935854;29;20704;-79
2021/04/12 06:51:52;;;;;;;1.30;1.30;;;3.30;99.90;;;;;;4940473;29;20257;-79
2021/04/12 06:54:43;;;;;;;1.53;1.53;;;3.30;99.90;;;;;;4943006;29;20229;-79
2021/04/12 06:58:10;;;;;;;1.27;1.27;;;3.30;99.90;;;;;;4941401;29;20211;-80
2021/04/12 07:01:02;;;;;;;1.40;1.40;;;3.40;99.90;;;;;;4902961;29;20220;-79
2021/04/12 07:04:04;;;;;;;1.30;1.30;;;3.40;99.90;;;;;;4900817;29;20214;-80
2021/04/12 07:06:44;;;;;;;1.60;1.60;;;3.30;99.90;;;;;;4938076;29;20206;-80
2021/04/12 07:09:50;;;;;;;1.50;1.50;;;3.50;99.90;;;;;;4938751;29;20829;-80
2021/04/12 07:12:57;;;;;;;1.30;1.30;;;3.60;99.90;;;;;;4937441;29;20233;-81
2021/04/12 07:15:55;;;;;;;1.37;1.37;;;3.60;99.90;;;;;;4937918;29;20202;-81
2021/04/12 07:19:09;;;;;;;1.13;1.13;;;3.70;99.90;;;;;;4937747;29;20245;-79
2021/04/12 07:22:13;;;;;;;1.30;1.30;;;3.80;99.90;;;;;;4936689;29;20245;-78
2021/04/12 07:24:50;;;;;;;1.20;1.20;;;3.90;99.90;;;;;;4936979;29;20261;-80
2021/04/12 07:28:03;;;;;;;1.53;1.53;;;3.90;99.90;;;;;;4936764;29;20555;-80
2021/04/12 07:31:16;;;;;;;1.33;1.33;;;3.90;99.90;;;;;;4935600;29;20790;-79
2021/04/12 07:34:06;;;;;;;1.60;1.60;;;3.90;99.90;;;;;;4936678;29;20621;-79
2021/04/12 07:37:16;;;;;;;1.47;1.47;;;3.80;99.90;;;;;;4936315;29;20210;-79
2021/04/12 07:40:26;;;;;;;1.60;1.60;;;3.80;99.90;;;;;;4936773;29;20205;-81
2021/04/12 07:43:46;;;;;;;1.73;1.73;;;3.80;99.90;;;;;;4935035;29;20214;-79
2021/04/12 07:46:38;;;;;;;1.40;1.40;;;3.60;99.90;;;;;;4934541;29;20679;-79
2021/04/12 07:49:50;;;;;;;1.13;1.13;;;3.70;99.90;;;;;;4933847;29;20727;-79
2021/04/12 07:53:02;;;;;;;1.20;1.20;;;3.80;99.90;;;;;;4935890;29;20285;-79
2021/04/12 07:55:55;;;;;;;1.17;1.17;;;4.00;99.90;;;;;;4935618;29;20468;-78
2021/04/12 07:59:04;;;;;;;1.30;1.30;;;4.10;99.90;;;;;;4935818;29;20234;-79
2021/04/12 08:01:54;;;;;;;1.37;1.37;;;4.10;99.90;;;;;;4937664;29;20340;-79
2021/04/12 08:05:09;;;;;;;1.37;1.37;;;3.90;99.90;;;;;;4938929;29;20210;-79
2021/04/12 08:08:14;;;;;;;1.53;1.53;;;3.80;99.90;;;;;;4900771;29;20600;-78
2021/04/12 08:11:35;;;;;;;1.30;1.30;;;3.80;99.90;;;;;;4896761;29;20688;-79
2021/04/12 08:14:35;;;;;;;1.53;1.53;;;3.90;99.90;;;;;;4938550;29;20213;-79
2021/04/12 08:17:50;;;;;;;1.33;1.33;;;4.10;99.90;;;;;;4938441;29;20675;-79
2021/04/12 08:21:05;;;;;;;1.33;1.33;;;3.60;99.90;;;;;;4941202;29;20269;-79
2021/04/12 08:24:16;;;;;;;1.40;1.40;;;3.90;99.90;;;;;;4940547;29;20206;-79
2021/04/12 08:27:25;;;;;;;1.20;1.20;;;3.70;99.90;;;;;;4939979;29;20206;-79
2021/04/12 08:30:43;;;;;;;1.30;1.30;;;3.70;99.90;;;;;;4939950;29;20257;-79
2021/04/12 08:33:58;;;;;;;1.40;1.40;;;3.80;99.90;;;;;;4938653;29;20202;-79
2021/04/12 08:37:00;;;;;;;1.27;1.27;;;4.00;99.90;;;;;;4938609;29;20202;-79
2021/04/12 08:39:57;;;;;;;1.40;1.40;;;4.20;99.90;;;;;;4938747;29;20249;-80
2021/04/12 08:42:43;;;;;;;1.30;1.30;;;4.20;99.90;;;;;;4938943;29;20264;-80
2021/04/12 08:45:33;;;;;;;1.30;1.30;;;4.20;99.90;;;;;;4938939;29;20224;-80
2021/04/12 08:48:20;;;;;;;1.50;1.50;;;4.10;99.90;;;;;;4938124;29;20210;-79
2021/04/12 08:51:27;;;;;;;1.23;1.23;;;4.10;99.90;;;;;;4937783;29;20695;-80
2021/04/12 08:54:31;;;;;;;1.30;1.30;;;4.10;99.90;;;;;;4931434;29;20202;-80
2021/04/12 08:57:33;;;;;;;1.57;1.57;;;3.90;99.90;;;;;;4937985;29;20209;-80
2021/04/12 09:00:31;;;;;;;1.30;1.30;;;4.00;99.90;;;;;;4937283;29;20615;-79
2021/04/12 09:03:33;;;;;;;1.03;1.03;;;4.10;99.90;;;;;;4937661;29;20202;-79
2021/04/12 09:06:32;;;;;;;1.30;1.30;;;4.20;99.90;;;;;;4937590;29;20237;-79
2021/04/12 09:09:10;;;;;;;1.30;1.30;;;4.50;99.90;;;;;;4937470;29;20210;-79
2021/04/12 09:12:20;;;;;;;1.27;1.27;;;4.40;99.90;;;;;;4936321;29;20237;-79
2021/04/12 09:15:29;;;;;;;1.37;1.37;;;4.40;99.90;;;;;;4937219;29;20206;-79
2021/04/12 09:18:25;;;;;;;1.27;1.27;;;4.60;99.90;;;;;;4926584;29;20265;-80
2021/04/12 09:21:07;;;;;;;1.33;1.33;;;4.70;99.90;;;;;;4937315;29;20241;-80
2021/04/12 09:23:59;;;;;;;1.50;1.50;;;4.80;99.90;;;;;;4937767;29;20206;-80
2021/04/12 09:26:41;;;;;;;1.30;1.30;;;4.80;99.90;;;;;;4936860;29;20261;-80
2021/04/12 09:29:30;;;;;;;1.30;1.30;;;4.60;99.90;;;;;;4937079;29;20244;-80
2021/04/12 09:32:22;;;;;;;1.47;1.47;;;4.80;99.90;;;;;;4936703;29;20710;-79
2021/04/12 09:35:27;;;;;;;1.23;1.23;;;4.80;99.90;;;;;;4936920;29;20238;-79
2021/04/12 09:38:25;;;;;;;1.30;1.30;;;4.70;99.90;;;;;;4937332;29;20261;-79
2021/04/12 09:41:43;;;;;;;1.03;1.03;;;4.90;99.90;;;;;;4936820;29;20422;-79
2021/04/12 09:44:28;;;;;;;1.20;1.20;;;4.90;99.90;;;;;;4837636;29;20216;-79
2021/04/12 09:47:35;;;;;;;1.17;1.17;;;5.00;99.90;;;;;;4938138;29;20229;-79
2021/04/12 09:50:51;;;;;;;1.20;1.20;;;5.10;99.90;;;;;;4938301;29;20297;-79
2021/04/12 09:53:54;;;;;;;1.20;1.20;;;5.20;99.90;;;;;;4937957;29;20206;-79
2021/04/12 09:56:51;;;;;;;1.30;1.30;;;5.30;99.90;;;;;;4896113;29;20471;-79
2021/04/12 09:59:42;;;;;;;1.30;1.30;;;5.50;99.90;;;;;;4936732;29;20217;-79
2021/04/12 10:02:40;;;;;;;1.10;1.10;;;5.60;99.90;;;;;;4937875;29;20273;-79
2021/04/12 10:05:23;;;;;;;1.30;1.30;;;5.30;99.90;;;;;;4937024;29;20293;-79
2021/04/12 10:08:05;;;;;;;1.33;1.33;;;5.10;99.90;;;;;;4937244;29;20210;-78
2021/04/12 10:10:46;;;;;;;1.10;1.10;;;4.90;99.90;;;;;;4935972;29;20229;-78
2021/04/12 10:13:25;;;;;;;1.20;1.20;;;4.80;99.90;;;;;;4938813;29;20210;-78
2021/04/12 10:16:15;;;;;;;1.30;1.30;;;4.90;99.90;;;;;;4939505;29;20233;-78
2021/04/12 10:18:45;;;;;;;1.40;1.40;;;5.20;99.90;;;;;;4929255;29;20206;-78
2021/04/12 10:21:25;;;;;;;1.20;1.20;;;5.20;99.90;;;;;;4939695;29;20707;-78
2021/04/12 10:24:02;;;;;;;1.20;1.20;;;5.30;99.90;;;;;;4937966;29;20292;-78
2021/04/12 10:26:37;;;;;;;1.10;1.10;;;5.30;99.90;;;;;;4937183;29;20718;-79
2021/04/12 10:29:12;;;;;;;1.07;1.07;;;5.40;99.90;;;;;;4938786;29;20260;-78
2021/04/12 10:31:43;;;;;;;1.10;1.10;;;5.40;99.90;;;;;;4936836;29;20280;-78
2021/04/12 10:34:18;;;;;;;1.03;1.03;;;5.40;99.90;;;;;;4935584;29;20206;-78
2021/04/12 10:37:05;;;;;;;1.23;1.23;;;5.50;99.90;;;;;;4935024;29;20249;-78
2021/04/12 10:39:40;;;;;;;1.10;1.10;;;5.50;99.90;;;;;;4935460;29;20630;-78
2021/04/12 10:42:28;;;;;;;1.40;1.40;;;5.50;99.90;;;;;;4935999;29;20233;-78
2021/04/12 10:45:04;;;;;;;1.40;1.40;;;5.20;99.90;;;;;;4935739;29;20213;-78
2021/04/12 10:47:43;;;;;;;1.10;1.10;;;4.90;99.90;;;;;;4935507;29;20261;-78
2021/04/12 10:50:22;;;;;;;1.50;1.50;;;5.20;99.90;;;;;;4935306;29;20206;-78
2021/04/12 10:53:01;;;;;;;1.30;1.30;;;5.20;99.90;;;;;;4935378;29;20229;-78
2021/04/12 10:55:35;;;;;;;1.10;1.10;;;5.10;99.90;;;;;;4935683;29;20210;-78
2021/04/12 10:58:23;;;;;;;1.20;1.20;;;4.90;99.90;;;;;;4938427;29;20580;-78
2021/04/12 11:01:03;;;;;;;1.20;1.20;;;5.20;99.90;;;;;;4936695;29;20597;-78
2021/04/12 11:03:45;;;;;;;1.30;1.30;;;5.20;99.90;;;;;;4935864;29;20205;-79
2021/04/12 11:06:32;;;;;;;1.20;1.20;;;5.20;99.90;;;;;;4935936;29;20664;-79
2021/04/12 11:09:11;;;;;;;1.40;1.40;;;5.30;99.90;;;;;;4936776;29;20202;-78
2021/04/12 11:11:51;;;;;;;1.23;1.23;;;5.50;99.90;;;;;;4936410;29;20326;-79
2021/04/12 11:14:27;;;;;;;1.20;1.20;;;5.90;99.90;;;;;;4936715;29;20210;-79
2021/04/12 11:17:01;;;;;;;1.20;1.20;;;5.90;99.90;;;;;;4936426;29;20242;-79
2021/04/12 11:19:36;;;;;;;0.90;0.90;;;6.10;99.90;;;;;;4936385;29;20663;-79
2021/04/12 11:22:27;;;;;;;1.10;1.10;;;6.20;99.90;;;;;;4936414;29;20722;-78
2021/04/12 11:25:01;;;;;;;1.30;1.30;;;6.40;99.90;;;;;;4936797;29;20701;-78
2021/04/12 11:27:59;;;;;;;1.00;1.00;;;6.40;99.90;;;;;;4937068;29;20232;-79
2021/04/12 11:30:33;;;;;;;1.03;1.03;;;6.40;99.90;;;;;;4936360;29;20239;-78
2021/04/12 11:33:14;;;;;;;1.10;1.10;;;6.40;99.90;;;;;;4935531;29;20228;-78
2021/04/12 11:35:53;;;;;;;1.27;1.27;;;6.30;99.90;;;;;;4936887;29;20205;-79
2021/04/12 11:38:24;;;;;;;1.10;1.10;;;6.30;99.90;;;;;;4939687;29;20206;-78
2021/04/12 11:40:57;;;;;;;1.30;1.30;;;6.50;99.90;;;;;;4939462;29;20662;-78
2021/04/12 11:43:27;;;;;;;1.10;1.10;;;6.60;99.90;;;;;;4939788;29;20213;-78
2021/04/12 11:46:00;;;;;;;1.10;1.10;;;6.80;99.90;;;;;;4938566;29;20202;-78
2021/04/12 11:48:47;;;;;;;1.10;1.10;;;6.80;99.90;;;;;;4939426;29;20675;-78
2021/04/12 11:51:24;;;;;;;1.20;1.20;;;6.60;99.90;;;;;;4939577;29;20234;-79
2021/04/12 11:53:55;;;;;;;1.10;1.10;;;6.50;99.90;;;;;;4939264;29;20237;-78
2021/04/12 11:56:38;;;;;;;1.00;1.00;;;6.20;99.90;;;;;;4938856;29;20672;-80
2021/04/12 11:59:15;;;;;;;1.07;1.07;;;6.10;99.90;;;;;;4938193;29;20206;-78
2021/04/12 12:01:48;;;;;;;1.10;1.10;;;6.20;99.90;;;;;;4938111;29;20229;-77
2021/04/12 12:04:19;;;;;;;1.23;1.23;;;6.30;99.90;;;;;;4938225;29;20626;-78
2021/04/12 12:07:07;;;;;;;1.40;1.40;;;6.00;99.90;;;;;;4938545;29;20671;-77
2021/04/12 12:09:42;;;;;;;1.20;1.20;;;6.00;99.90;;;;;;4938886;29;20681;-77
2021/04/12 12:12:22;;;;;;;1.30;1.30;;;5.90;99.90;;;;;;4937948;29;20653;-77
2021/04/12 12:14:59;;;;;;;1.00;1.00;;;5.80;99.90;;;;;;4938120;29;20210;-78
2021/04/12 12:17:39;;;;;;;1.30;1.30;;;5.80;99.90;;;;;;4939067;29;20595;-77
2021/04/12 12:20:15;;;;;;;1.10;1.10;;;5.80;99.90;;;;;;4938568;29;20294;-79
2021/04/12 12:22:52;;;;;;;1.30;1.30;;;5.80;99.90;;;;;;4937786;29;20241;-77
2021/04/12 12:25:33;;;;;;;1.20;1.20;;;5.70;99.90;;;;;;4937501;29;20269;-79
2021/04/12 12:28:09;;;;;;;1.20;1.20;;;5.90;99.90;;;;;;4937660;29;20651;-77
2021/04/12 12:30:49;;;;;;;1.20;1.20;;;6.00;99.90;;;;;;4938379;29;20292;-77
2021/04/12 12:33:26;;;;;;;1.30;1.30;;;6.00;99.90;;;;;;4938388;29;20718;-77
2021/04/12 12:36:06;;;;;;;1.13;1.13;;;6.20;99.90;;;;;;4937289;29;20206;-77
2021/04/12 12:38:50;;;;;;;1.10;1.10;;;6.10;99.90;;;;;;4937720;29;20667;-77
2021/04/12 12:41:19;;;;;;;1.00;1.00;;;5.90;99.90;;;;;;4936798;29;20229;-80
2021/04/12 12:43:51;;;;;;;1.10;1.10;;;5.80;99.90;;;;;;4938618;29;20205;-78
2021/04/12 12:46:23;;;;;;;1.20;1.20;;;5.80;99.90;;;;;;4938829;29;20237;-78
2021/04/12 12:48:53;;;;;;;1.40;1.40;;;5.80;99.90;;;;;;4938180;29;20294;-79
2021/04/12 12:51:26;;;;;;;1.20;1.20;;;5.80;99.90;;;;;;4939176;29;20281;-79
2021/04/12 12:54:02;;;;;;;1.30;1.30;;;5.90;99.90;;;;;;4938541;29;20217;-79
2021/04/12 12:56:32;;;;;;;1.20;1.20;;;6.10;99.90;;;;;;4939554;29;20621;-79
2021/04/12 12:59:01;;;;;;;1.00;1.00;;;6.20;99.90;;;;;;4939448;29;20210;-79
2021/04/12 13:01:32;;;;;;;1.10;1.10;;;6.20;99.90;;;;;;4938805;29;20233;-79
2021/04/12 13:04:12;;;;;;;1.13;1.13;;;6.30;99.90;;;;;;4939863;29;20391;-79
2021/04/12 13:06:41;;;;;;;1.00;1.00;;;6.50;99.90;;;;;;4939212;29;20578;-78
2021/04/12 13:09:26;;;;;;;0.93;0.93;;;6.70;99.90;;;;;;4938326;29;20301;-78
2021/04/12 13:11:56;;;;;;;1.10;1.10;;;6.50;99.90;;;;;;4938877;29;20240;-78
2021/04/12 13:14:34;;;;;;;1.10;1.10;;;6.20;99.90;;;;;;4938534;29;20210;-78
2021/04/12 13:17:17;;;;;;;1.20;1.20;;;6.60;99.90;;;;;;4938530;29;20268;-78
2021/04/12 13:19:47;;;;;;;1.10;1.10;;;6.70;99.90;;;;;;4937808;29;20212;-78
2021/04/12 13:22:20;;;;;;;1.10;1.10;;;6.90;99.90;;;;;;4937910;29;20297;-78
2021/04/12 13:24:47;;;;;;;1.07;1.07;;;7.00;99.90;;;;;;4938983;29;20190;-79
2021/04/12 13:27:26;;;;;;;1.20;1.20;;;7.00;99.90;;;;;;4939473;29;20289;-78
2021/04/12 13:29:56;;;;;;;1.00;1.00;;;7.00;99.90;;;;;;4940482;29;20216;-78
2021/04/12 13:32:26;;;;;;;1.00;1.00;;;7.10;99.90;;;;;;4921622;29;20227;-78
2021/04/12 13:34:58;;;;;;;0.90;0.90;;;7.30;99.90;;;;;;4920661;29;20206;-78
2021/04/12 13:37:28;;;;;;;1.10;1.10;;;7.50;99.90;;;;;;4920780;29;20194;-78
2021/04/12 13:40:01;;;;;;;1.00;1.00;;;7.40;99.90;;;;;;4921542;29;20254;-81
2021/04/12 13:42:33;;;;;;;1.00;1.00;;;7.50;99.90;;;;;;4921709;29;20279;-79
2021/04/12 13:45:05;;;;;;;1.00;1.00;;;7.40;99.90;;;;;;4922961;29;20207;-79
2021/04/12 13:47:41;;;;;;;1.03;1.03;;;7.50;99.90;;;;;;4921250;29;20225;-81
2021/04/12 13:50:14;;;;;;;1.13;1.13;;;7.50;99.90;;;;;;4921410;29;20212;-78
2021/04/12 13:52:48;;;;;;;1.00;1.00;;;7.50;99.90;;;;;;4919270;29;20298;-78
2021/04/12 13:55:20;;;;;;;0.97;0.97;;;7.20;99.90;;;;;;4917864;29;20211;-78
2021/04/12 13:57:51;;;;;;;0.90;0.90;;;8.00;99.90;;;;;;4918603;29;20214;-78
2021/04/12 14:00:22;;;;;;;0.93;0.93;;;7.80;99.90;;;;;;4917643;29;20217;-78
2021/04/12 14:02:55;;;;;;;0.90;0.90;;;7.70;99.90;;;;;;4917045;29;20203;-77
2021/04/12 14:05:26;;;;;;;1.10;1.10;;;7.80;99.90;;;;;;4917008;29;20210;-77
2021/04/12 14:08:02;;;;;;;1.00;1.00;;;7.80;99.90;;;;;;4916847;29;20665;-78
2021/04/12 14:10:34;;;;;;;0.90;0.90;;;7.70;99.90;;;;;;4916428;29;20202;-78
2021/04/12 14:13:11;;;;;;;1.00;1.00;;;7.60;99.90;;;;;;4916854;29;20227;-79
2021/04/12 14:15:50;;;;;;;0.90;0.90;;;7.60;99.90;;;;;;4916548;29;20733;-78
2021/04/12 14:18:37;;;;;;;1.10;1.10;;;7.40;99.90;;;;;;4916704;29;20206;-80
2021/04/12 14:21:09;;;;;;;1.20;1.20;;;7.20;99.90;;;;;;4916593;29;20234;-78
2021/04/12 14:23:43;;;;;;;1.30;1.30;;;7.00;99.90;;;;;;4916912;29;20202;-80
2021/04/12 14:26:14;;;;;;;1.20;1.20;;;6.40;99.90;;;;;;4916461;29;20206;-77
2021/04/12 14:28:48;;;;;;;1.20;1.20;;;6.10;99.90;;;;;;4915855;29;20289;-77
2021/04/12 14:31:22;;;;;;;1.30;1.30;;;5.80;99.90;;;;;;4915890;29;20227;-80
2021/04/12 14:33:54;;;;;;;1.17;1.17;;;5.80;99.90;;;;;;4916242;29;20257;-78
2021/04/12 14:36:24;;;;;;;1.10;1.10;;;5.90;99.90;;;;;;4916150;29;20239;-78
2021/04/12 14:38:54;;;;;;;1.10;1.10;;;6.10;99.90;;;;;;4916014;29;20218;-77
2021/04/12 14:41:25;;;;;;;1.13;1.13;;;6.20;99.90;;;;;;4916448;29;20286;-79
2021/04/12 14:43:56;;;;;;;1.00;1.00;;;6.30;99.90;;;;;;4916438;29;20195;-79
2021/04/12 14:46:26;;;;;;;1.00;1.00;;;6.50;99.90;;;;;;4918505;29;20672;-79
2021/04/12 14:48:56;;;;;;;1.00;1.00;;;6.50;99.90;;;;;;4930610;29;20210;-79
2021/04/12 14:51:25;;;;;;;0.90;0.90;;;6.70;99.90;;;;;;4935442;29;20284;-78
2021/04/12 14:53:57;;;;;;;1.00;1.00;;;7.00;99.90;;;;;;4935971;29;20814;-79
2021/04/12 14:56:27;;;;;;;0.90;0.90;;;7.10;99.90;;;;;;4934721;29;20206;-79
2021/04/12 14:58:58;;;;;;;1.00;1.00;;;7.50;99.90;;;;;;4935255;29;20198;-77
2021/04/12 15:01:30;;;;;;;0.90;0.90;;;7.80;99.90;;;;;;4934740;29;20230;-77
2021/04/12 15:04:01;;;;;;;0.90;0.90;;;7.80;99.90;;;;;;4934862;29;20210;-78
2021/04/12 15:06:32;;;;;;;0.73;0.73;;;7.50;99.90;;;;;;4934623;29;20419;-77
2021/04/12 15:09:03;;;;;;;1.00;1.00;;;7.60;99.90;;;;;;4931929;29;20186;-77
2021/04/12 15:11:41;;;;;;;0.80;0.80;;;7.60;99.90;;;;;;4938668;29;20226;-78
2021/04/12 15:14:15;;;;;;;1.00;1.00;;;7.30;99.90;;;;;;4939387;29;20194;-78
2021/04/12 15:16:50;;;;;;;1.00;1.00;;;7.30;99.90;;;;;;4939284;29;20273;-78
2021/04/12 15:19:33;;;;;;;1.23;1.23;;;7.30;99.90;;;;;;4939275;29;20261;-78
2021/04/12 15:22:03;;;;;;;1.20;1.20;;;7.00;99.90;;;;;;4937254;29;20288;-78
2021/04/12 15:24:35;;;;;;;1.30;1.30;;;6.80;99.90;;;;;;4938231;29;20662;-77
2021/04/12 15:27:05;;;;;;;1.10;1.10;;;6.70;99.90;;;;;;4939602;29;20198;-78
2021/04/12 15:29:38;;;;;;;1.20;1.20;;;6.70;99.90;;;;;;4938554;29;20557;-78
2021/04/12 15:32:22;;;;;;;1.03;1.03;;;6.70;99.90;;;;;;4938819;29;20778;-77
2021/04/12 15:34:52;;;;;;;1.07;1.07;;;6.70;99.90;;;;;;4928464;29;20285;-78
2021/04/12 15:37:36;;;;;;;1.10;1.10;;;6.80;99.90;;;;;;4934275;29;20546;-79
2021/04/12 15:40:25;;;;;;;1.17;1.17;;;6.70;99.90;;;;;;4926032;29;20286;-77
2021/04/12 15:42:58;;;;;;;1.00;1.00;;;6.80;99.90;;;;;;4927517;29;20198;-78
2021/04/12 15:45:40;;;;;;;1.17;1.17;;;6.90;99.90;;;;;;4934574;29;20294;-77
2021/04/12 15:48:22;;;;;;;1.17;1.17;;;6.90;99.90;;;;;;4938264;29;20461;-78
2021/04/12 15:51:00;;;;;;;1.13;1.13;;;6.90;99.90;;;;;;4937762;29;20229;-77
2021/04/12 15:53:28;;;;;;;1.00;1.00;;;6.80;99.90;;;;;;4937699;29;20221;-77
2021/04/12 15:55:59;;;;;;;0.97;0.97;;;6.80;99.90;;;;;;4940913;29;20698;-77
2021/04/12 15:58:29;;;;;;;1.23;1.23;;;6.80;99.90;;;;;;4937449;29;20273;-77
2021/04/12 16:01:10;;;;;;;0.90;0.90;;;6.80;99.90;;;;;;4941840;29;20241;-78
2021/04/12 16:03:46;;;;;;;1.03;1.03;;;6.80;99.90;;;;;;4938404;29;20567;-77
2021/04/12 16:06:18;;;;;;;0.93;0.93;;;6.80;99.90;;;;;;4939287;29;20209;-79
2021/04/12 16:08:51;;;;;;;1.17;1.17;;;6.80;99.90;;;;;;4941650;29;20214;-78
2021/04/12 16:11:36;;;;;;;0.83;0.83;;;6.90;99.90;;;;;;4939058;29;20230;-78
2021/04/12 16:14:12;;;;;;;1.20;1.20;;;6.80;99.90;;;;;;4939871;29;20311;-81
2021/04/12 16:16:41;;;;;;;1.07;1.07;;;6.90;99.90;;;;;;4940836;29;20194;-80
2021/04/12 16:19:20;;;;;;;1.00;1.00;;;6.80;99.90;;;;;;4940306;29;20206;-79
2021/04/12 16:21:55;;;;;;;1.00;1.00;;;6.80;99.90;;;;;;4938780;29;20222;-79
2021/04/12 16:24:27;;;;;;;1.07;1.07;;;6.80;99.90;;;;;;4935085;29;20210;-80
2021/04/12 16:26:58;;;;;;;1.03;1.03;;;6.80;99.90;;;;;;4924297;29;20210;-81
2021/04/12 16:29:38;;;;;;;1.00;1.00;;;6.90;99.90;;;;;;4926717;29;20238;-79
2021/04/12 16:32:08;;;;;;;0.80;0.80;;;7.00;99.90;;;;;;4928102;29;20282;-79
2021/04/12 16:34:37;;;;;;;1.10;1.10;;;7.10;99.90;;;;;;4931898;29;20202;-79
2021/04/12 16:37:11;;;;;;;1.10;1.10;;;7.10;99.90;;;;;;4940227;29;20221;-80
2021/04/12 16:39:40;;;;;;;1.10;1.10;;;7.00;99.90;;;;;;4943446;29;20213;-80
2021/04/12 16:42:12;;;;;;;1.03;1.03;;;6.90;99.90;;;;;;4940245;29;20343;-79
2021/04/12 16:44:46;;;;;;;0.90;0.90;;;7.00;99.90;;;;;;4941247;29;20206;-80
2021/04/12 16:47:17;;;;;;;1.10;1.10;;;7.00;99.90;;;;;;4942118;29;20257;-79
2021/04/12 16:49:49;;;;;;;1.00;1.00;;;7.00;99.90;;;;;;4939652;29;20289;-80
2021/04/12 16:52:27;;;;;;;1.00;1.00;;;6.90;99.90;;;;;;4947893;29;20222;-79
2021/04/12 16:55:00;;;;;;;0.90;0.90;;;6.90;99.90;;;;;;4946624;29;20198;-79
2021/04/12 16:57:34;;;;;;;1.00;1.00;;;6.90;99.90;;;;;;4945796;29;20209;-79
2021/04/12 17:00:35;;;;;;;1.00;1.00;;;6.90;99.90;;;;;;4942746;29;20907;-81
2021/04/12 17:03:24;;;;;;;1.07;1.07;;;6.80;99.90;;;;;;4926457;29;20202;-79
2021/04/12 17:05:57;;;;;;;1.17;1.17;;;6.90;99.90;;;;;;4927348;29;20210;-83
2021/04/12 17:08:39;;;;;;;1.00;1.00;;;6.90;99.90;;;;;;4930482;29;20213;-80
2021/04/12 17:11:07;;;;;;;1.00;1.00;;;6.90;99.90;;;;;;4946681;29;20234;-80
2021/04/12 17:13:42;;;;;;;1.07;1.07;;;6.80;99.90;;;;;;4946631;29;20223;-79
2021/04/12 17:16:19;;;;;;;1.00;1.00;;;6.80;99.90;;;;;;4947452;29;20198;-79
2021/04/12 17:18:48;;;;;;;1.10;1.10;;;6.80;99.90;;;;;;4942640;29;20194;-78
2021/04/12 17:21:32;;;;;;;1.13;1.13;;;6.80;99.90;;;;;;4937578;29;20245;-80
2021/04/12 17:24:08;;;;;;;1.00;1.00;;;6.70;99.90;;;;;;4945696;29;20234;-79
2021/04/12 17:26:42;;;;;;;1.10;1.10;;;6.70;99.90;;;;;;4948104;29;20198;-80
2021/04/12 17:29:16;;;;;;;1.10;1.10;;;6.70;99.90;;;;;;4950489;29;20209;-79
2021/04/12 17:31:47;;;;;;;1.10;1.10;;;6.70;99.90;;;;;;4950261;29;20822;-79
2021/04/12 17:34:19;;;;;;;0.90;0.90;;;6.60;99.90;;;;;;4948085;29;20229;-79
2021/04/12 17:36:50;;;;;;;1.07;1.07;;;6.50;99.90;;;;;;4950066;29;20230;-81
2021/04/12 17:39:24;;;;;;;1.10;1.10;;;6.50;99.90;;;;;;4938111;29;20264;-79
2021/04/12 17:41:53;;;;;;;1.00;1.00;;;6.60;99.90;;;;;;4935870;29;20540;-79
2021/04/12 17:44:24;;;;;;;1.00;1.00;;;6.50;99.90;;;;;;4937963;29;20261;-79
2021/04/12 17:46:57;;;;;;;0.93;0.93;;;6.40;99.90;;;;;;4939059;29;20253;-79
2021/04/12 17:49:35;;;;;;;1.13;1.13;;;6.50;99.90;;;;;;4941539;29;20214;-79
2021/04/12 17:52:06;;;;;;;1.20;1.20;;;6.60;99.90;;;;;;4944433;29;20222;-79
2021/04/12 17:54:37;;;;;;;1.07;1.07;;;6.70;99.90;;;;;;4948877;29;20264;-80
2021/04/12 17:57:08;;;;;;;1.17;1.17;;;6.80;99.90;;;;;;4945658;29;20238;-80
2021/04/12 17:59:45;;;;;;;1.10;1.10;;;6.60;99.90;;;;;;4949113;29;20202;-80
2021/04/12 18:02:24;;;;;;;1.03;1.03;;;6.50;99.90;;;;;;4948664;29;20230;-79
2021/04/12 18:04:57;;;;;;;1.17;1.17;;;6.50;99.90;;;;;;4948810;29;20214;-79
2021/04/12 18:07:27;;;;;;;0.97;0.97;;;6.50;99.90;;;;;;4948348;29;20217;-78
2021/04/12 18:10:02;;;;;;;1.17;1.17;;;6.40;99.90;;;;;;4947114;29;20206;-80
2021/04/12 18:12:36;;;;;;;1.00;1.00;;;6.40;99.90;;;;;;4947088;29;20691;-79
2021/04/12 18:15:11;;;;;;;1.10;1.10;;;6.50;99.90;;;;;;4944513;29;20210;-80
2021/04/12 18:17:50;;;;;;;1.00;1.00;;;6.40;99.90;;;;;;4944444;29;20202;-80
2021/04/12 18:20:24;;;;;;;1.00;1.00;;;6.30;99.90;;;;;;4941903;29;20213;-79
2021/04/12 18:23:00;;;;;;;1.00;1.00;;;6.40;99.90;;;;;;4942615;29;20551;-79
2021/04/12 18:25:33;;;;;;;1.20;1.20;;;6.50;99.90;;;;;;4945151;29;20230;-79
2021/04/12 18:28:09;;;;;;;1.00;1.00;;;6.50;99.90;;;;;;4941334;29;20197;-78
2021/04/12 18:30:47;;;;;;;1.00;1.00;;;6.40;99.90;;;;;;4937500;29;20230;-80
2021/04/12 18:33:27;;;;;;;1.10;1.10;;;6.30;99.90;;;;;;4941424;29;20738;-79